Hillsboro, Illinois
Current Conditions -  °F | °C
As of 7:15 PM on Tuesday 27 Jan 2015 (Local Time) from K3LF Reporting Station
Clear Clear  
Wind Chill: 29°   Ceiling: Unl
Heat Index: 29°   Visibility: 10mi
Dew Point: 25°   Wind: 3mph
Humidity: 83%   Direction: 30°NNE
Pressure: 30.24"   Gusts: NA
Location:  39.16°N, 89.49°W
Report Text: K3LF 280115Z AUTO 03003KT 10SM CLR M02/M04 A3024 RMK AO2 T10161041
Loading
Personal Weather Stations






























Interactive Weather Map New forecast layout! Learn more

10-Day Weather Forecast

Advertisements
Track Severe Weather on mobile